Aeroporto :
LOGIN :

Iscrizione | Disclaimer

   EN    FR    IT 

 










Sommario :    VFR   VFR Marginale   IFR   IFR Intensivo   IFR Molto Intensivo
Visibilità : 
Base nubi : 
>= 8 km
>= 3000ft
5 / 8 km
1000 / 3000 ft
1500m / 5 km
500 / 1000 ft
800 / 1500m
200 / 500 ft
< 800m
< 200 ft
Simboli :   Temporali  Nebbia  Neve Forte  Precipitazioni Forti  Vento > 20 kt
SIGMETs :   Varie  Temporali  Ghiacco  Turbolenza  Onda orograficha  Ceneri Vulcaniche






- Altitudine del aeroporto : 459 ft
- Codice IATA : CER


LFRC - Cherbourg / Maupertus

ULTIMO METAR :
  • 171230Z AUTO 25021KT 9999 BKN018 BKN024 OVC029 08/06 Q1014 TEMPO 24025G50KT 2000 +TSRAGS BKN015CB

METARs OBSOLETI :
  • 171200Z AUTO 24020KT 9999 FEW017 BKN024 BKN031 08/06 Q1014 TEMPO 24025G50KT 2000 +TSRAGS BKN015CB
  • 171130Z AUTO 24021KT 9999 FEW024 BKN029 BKN036 08/05 Q1014 TEMPO 24025G50KT 2000 +TSRAGS BKN015CB
  • 171100Z AUTO 23022KT 9999 -RADZ BKN020/// BKN026/// OVC032/// 07/05 Q1014 TEMPO 24025G50KT 2000 +TSRAGS BKN015CB
  • 171030Z AUTO 23023G37KT 200V260 9999 FEW027/// BKN048/// BKN054/// 09/05 Q1013 TEMPO 24025G50KT 2000 +TSRAGS BKN015CB
  • 171000Z AUTO 25021KT 9999 BKN037/// BKN047/// BKN056/// 08/04 Q1013 TEMPO 24025G50KT 2000 +TSRAGS BKN015CB

TAF TAF LFRC
Valido dal 17 a 12 ore il 17 a 21 ore UTC


171100Z 1712/1721 22020G40KT 9999 BKN030
TEMPO 1712/1718 24025G50KT 2000 +TSRAGS BKN015CB
TEMPO 1718/1721 4000 SHRA SCT013CB SCT018TCU



MetMap, La meteo Aeronautica in un colpo d'occhio ! - Copyright ORBIFLY Dicembre 2007 - Disclaimer

ORBIFLY MET'MAP TEAM :

Programmazione e sviluppo : Alexandra Zaïnal
Concezione : Baudouin d'Aumeries
Aiuto per la programmazione : Marc-Olivier Méhu
Supporto tecnico e logistico : Manuel Goepfert
Aiuto per la traduzione : Arnaldo La Scala

Contatto : metmap@orbifly.com




FONTI E CREDITI :

   NOAA